Time;durP1;ratioP1;P1;durP2;ratioP2;P2;SDS_P1;SDS_P2;PMS_P1;PMS_P2;Temp;Humidity;BMP_temperature;BMP_pressure;BME280_temperature;BME280_humidity;BME280_pressure;Samples;Min_cycle;Max_cycle;Signal;HPM_P1;HPM_P2
2022/10/10 00:00:45;;;;;;;9.60;3.03;;;11.70;68.80;;;;;;5098118;28;20041;-59
2022/10/10 00:03:12;;;;;;;5.40;3.20;;;11.70;68.90;;;;;;5109326;28;20035;-60
2022/10/10 00:05:39;;;;;;;6.85;3.13;;;11.80;68.90;;;;;;5089146;28;20020;-60
2022/10/10 00:08:05;;;;;;;4.25;2.97;;;11.80;69.00;;;;;;5089551;28;20024;-61
2022/10/10 00:10:31;;;;;;;9.45;2.72;;;11.80;69.10;;;;;;5105009;28;20036;-60
2022/10/10 00:12:57;;;;;;;4.95;2.97;;;11.80;69.20;;;;;;5105408;28;20028;-60
2022/10/10 00:15:23;;;;;;;5.35;3.17;;;11.80;69.20;;;;;;5105912;28;20107;-59
2022/10/10 00:17:48;;;;;;;7.20;2.95;;;11.80;69.20;;;;;;5109167;28;20027;-60
2022/10/10 00:20:18;;;;;;;4.00;2.92;;;11.90;69.40;;;;;;5089466;28;20048;-60
2022/10/10 00:22:45;;;;;;;4.55;2.58;;;11.90;69.60;;;;;;5109744;28;20096;-60
2022/10/10 00:25:11;;;;;;;4.95;2.83;;;11.90;69.40;;;;;;5088712;28;20051;-59
2022/10/10 00:27:37;;;;;;;5.40;2.80;;;11.90;69.50;;;;;;5108724;28;20027;-59
2022/10/10 00:30:06;;;;;;;4.82;2.53;;;11.90;69.50;;;;;;5089458;28;20376;-60
2022/10/10 00:32:32;;;;;;;6.18;2.78;;;11.90;69.60;;;;;;5086991;28;20024;-60
2022/10/10 00:34:57;;;;;;;5.93;2.70;;;11.90;69.60;;;;;;5090268;28;20039;-60
2022/10/10 00:37:23;;;;;;;5.63;2.65;;;12.00;69.60;;;;;;5088171;28;20021;-60
2022/10/10 00:39:49;;;;;;;3.13;2.33;;;12.00;69.60;;;;;;5108546;28;20050;-60
2022/10/10 00:42:17;;;;;;;5.63;2.45;;;12.00;69.60;;;;;;5088457;28;20146;-60
2022/10/10 00:44:45;;;;;;;3.60;2.30;;;12.00;69.60;;;;;;5103639;28;20024;-60
2022/10/10 00:47:11;;;;;;;5.15;2.67;;;12.00;69.50;;;;;;5091526;28;20491;-60
2022/10/10 00:49:42;;;;;;;3.60;2.40;;;12.00;69.60;;;;;;5096677;28;20051;-60
2022/10/10 00:52:10;;;;;;;3.70;2.35;;;12.00;69.80;;;;;;5083570;28;20457;-60
2022/10/10 00:54:37;;;;;;;3.80;2.13;;;12.00;69.80;;;;;;5108755;28;20040;-61
2022/10/10 00:57:09;;;;;;;7.28;2.95;;;12.10;69.80;;;;;;5097860;28;20099;-60
2022/10/10 00:59:38;;;;;;;5.18;2.42;;;12.10;69.80;;;;;;5070762;28;20132;-61
2022/10/10 01:02:04;;;;;;;5.72;3.00;;;12.10;70.00;;;;;;5092249;28;20562;-60
2022/10/10 01:04:36;;;;;;;4.40;2.90;;;12.10;69.90;;;;;;5107991;28;20051;-61
2022/10/10 01:07:27;;;;;;;5.40;2.75;;;12.10;70.40;;;;;;5087908;28;20031;-60
2022/10/10 01:09:56;;;;;;;5.82;2.90;;;12.20;71.00;;;;;;5068553;28;20040;-59
2022/10/10 01:12:47;;;;;;;9.43;2.70;;;12.20;70.20;;;;;;5090325;28;20161;-60
2022/10/10 01:15:35;;;;;;;7.82;2.75;;;12.20;70.70;;;;;;5068067;28;20074;-59
2022/10/10 01:18:28;;;;;;;4.40;2.67;;;12.20;70.00;;;;;;5045873;28;20033;-61
2022/10/10 01:20:58;;;;;;;4.80;2.40;;;12.30;70.20;;;;;;5054787;28;20056;-62
2022/10/10 01:24:05;;;;;;;5.43;2.90;;;12.30;70.20;;;;;;5065835;28;20056;-59
2022/10/10 01:27:01;;;;;;;4.00;3.03;;;12.30;70.70;;;;;;5034676;28;20048;-61
2022/10/10 01:29:33;;;;;;;3.72;2.60;;;12.30;70.40;;;;;;5065426;28;20044;-59
2022/10/10 01:32:17;;;;;;;8.93;3.03;;;12.40;70.10;;;;;;5057926;28;20518;-59
2022/10/10 01:35:15;;;;;;;3.83;2.90;;;12.40;70.70;;;;;;5085120;28;20404;-59
2022/10/10 01:37:52;;;;;;;3.70;2.45;;;12.30;70.70;;;;;;5057698;28;20044;-60
2022/10/10 01:40:40;;;;;;;5.05;2.55;;;12.40;70.40;;;;;;5045409;28;20041;-60
2022/10/10 01:43:08;;;;;;;5.90;2.80;;;12.40;70.80;;;;;;5045404;28;20045;-60
2022/10/10 01:45:34;;;;;;;7.07;2.92;;;12.40;70.10;;;;;;5082661;28;20036;-60
2022/10/10 01:48:02;;;;;;;5.47;2.80;;;12.40;70.10;;;;;;5084854;28;20128;-60
2022/10/10 01:50:30;;;;;;;4.38;3.05;;;12.40;70.30;;;;;;5047274;28;20459;-60
2022/10/10 01:53:08;;;;;;;5.10;3.03;;;12.40;70.30;;;;;;5084389;28;20074;-59
2022/10/10 01:55:54;;;;;;;6.93;2.67;;;12.50;70.50;;;;;;5038977;28;20175;-60
2022/10/10 01:58:45;;;;;;;4.30;2.65;;;12.40;70.80;;;;;;5027687;28;20026;-62
2022/10/10 02:01:48;;;;;;;5.45;2.63;;;12.50;70.90;;;;;;5063730;28;20033;-60
2022/10/10 02:04:40;;;;;;;8.02;2.97;;;12.50;71.00;;;;;;5060302;28;20052;-60
2022/10/10 02:07:12;;;;;;;6.25;2.75;;;12.50;70.30;;;;;;5057516;28;20052;-63
2022/10/10 02:09:41;;;;;;;3.40;2.70;;;12.50;70.30;;;;;;5026123;28;20038;-60
2022/10/10 02:12:09;;;;;;;6.18;2.95;;;12.50;70.20;;;;;;5065880;28;20040;-61
2022/10/10 02:14:42;;;;;;;5.93;2.65;;;12.50;70.30;;;;;;5047492;28;20388;-59
2022/10/10 02:17:10;;;;;;;4.90;2.55;;;12.50;70.40;;;;;;5038967;28;20037;-61
2022/10/10 02:19:41;;;;;;;7.90;3.05;;;12.50;70.40;;;;;;5066827;28;20114;-59
2022/10/10 02:22:08;;;;;;;4.95;2.70;;;12.50;70.50;;;;;;5050971;28;20029;-59
2022/10/10 02:24:34;;;;;;;4.82;3.03;;;12.60;70.50;;;;;;5066712;28;20553;-60
2022/10/10 02:27:11;;;;;;;4.20;2.47;;;12.60;70.40;;;;;;5045170;28;20026;-60
2022/10/10 02:29:41;;;;;;;4.93;2.80;;;12.60;70.50;;;;;;5027195;28;20034;-60
2022/10/10 02:32:45;;;;;;;5.00;2.95;;;12.60;70.20;;;;;;5038766;28;20032;-60
2022/10/10 02:35:16;;;;;;;7.53;3.05;;;12.60;71.00;;;;;;5063810;28;20033;-60
2022/10/10 02:37:44;;;;;;;6.13;2.65;;;12.60;70.30;;;;;;5060775;28;20032;-61
2022/10/10 02:40:13;;;;;;;5.90;3.10;;;12.60;70.30;;;;;;5066398;28;20033;-59
2022/10/10 02:42:39;;;;;;;4.45;2.75;;;12.70;70.40;;;;;;5064332;28;20097;-59
2022/10/10 02:45:05;;;;;;;5.22;2.72;;;12.60;70.40;;;;;;5066372;28;20033;-60
2022/10/10 02:47:31;;;;;;;4.65;2.80;;;12.70;70.50;;;;;;5044983;28;20021;-60
2022/10/10 02:49:57;;;;;;;4.35;2.53;;;12.70;70.40;;;;;;5065278;28;20037;-62
2022/10/10 02:52:23;;;;;;;5.15;2.67;;;12.70;70.40;;;;;;5075600;28;20056;-60
2022/10/10 02:54:48;;;;;;;9.75;3.00;;;12.70;70.30;;;;;;5106024;28;20095;-60
2022/10/10 02:57:14;;;;;;;3.92;2.80;;;12.80;70.30;;;;;;5085903;28;20039;-60
2022/10/10 02:59:40;;;;;;;3.20;2.55;;;12.70;70.20;;;;;;5105891;28;20032;-60
2022/10/10 03:02:06;;;;;;;4.80;2.95;;;12.70;70.20;;;;;;5085897;28;20080;-60
2022/10/10 03:04:34;;;;;;;5.13;2.70;;;12.70;70.40;;;;;;5106008;28;20096;-59
2022/10/10 03:06:59;;;;;;;5.15;3.05;;;12.70;70.40;;;;;;5085851;28;20042;-61
2022/10/10 03:09:25;;;;;;;6.97;2.78;;;12.70;70.50;;;;;;5105669;28;20028;-59
2022/10/10 03:11:51;;;;;;;3.97;3.20;;;12.70;70.50;;;;;;5095312;28;20031;-62
2022/10/10 03:14:16;;;;;;;5.07;2.92;;;12.80;70.50;;;;;;5086603;28;20052;-60
2022/10/10 03:16:42;;;;;;;5.00;3.10;;;12.80;70.40;;;;;;5096557;28;20028;-60
2022/10/10 03:19:08;;;;;;;6.18;2.70;;;12.80;70.40;;;;;;5105761;28;20495;-62
2022/10/10 03:21:34;;;;;;;7.82;3.15;;;12.80;70.50;;;;;;5085550;28;20036;-59
2022/10/10 03:24:00;;;;;;;3.92;3.10;;;12.80;70.50;;;;;;5085843;28;20596;-61
2022/10/10 03:26:26;;;;;;;5.82;3.20;;;12.80;70.50;;;;;;5104769;28;20080;-62
2022/10/10 03:28:52;;;;;;;4.65;3.00;;;12.80;70.50;;;;;;5106127;28;20024;-60
2022/10/10 03:31:17;;;;;;;3.50;2.85;;;12.80;70.50;;;;;;5089766;28;20028;-59
2022/10/10 03:33:43;;;;;;;3.38;2.70;;;12.80;70.50;;;;;;5106307;28;20498;-59
2022/10/10 03:36:10;;;;;;;3.92;3.05;;;12.80;70.50;;;;;;5085596;28;20509;-60
2022/10/10 03:38:35;;;;;;;4.57;2.67;;;12.80;70.50;;;;;;5105616;28;20028;-60
2022/10/10 03:41:01;;;;;;;5.65;3.10;;;12.80;70.50;;;;;;5085306;28;20702;-59
2022/10/10 03:43:27;;;;;;;7.32;2.72;;;12.80;70.60;;;;;;5105267;28;20078;-60
2022/10/10 03:45:52;;;;;;;5.20;2.95;;;12.80;70.50;;;;;;5085517;28;20104;-62
2022/10/10 03:48:18;;;;;;;5.78;2.95;;;12.80;70.50;;;;;;5104119;28;20024;-60
2022/10/10 03:50:44;;;;;;;4.95;3.10;;;12.80;70.60;;;;;;5085919;28;20029;-60
2022/10/10 03:53:11;;;;;;;3.60;2.80;;;12.80;70.60;;;;;;5085793;28;20063;-61
2022/10/10 03:55:41;;;;;;;5.65;3.08;;;12.80;70.70;;;;;;5089594;28;20099;-62
2022/10/10 03:58:07;;;;;;;9.77;3.40;;;12.80;70.60;;;;;;5086157;28;20081;-59
2022/10/10 04:00:34;;;;;;;7.28;3.70;;;12.80;70.50;;;;;;5105298;28;20044;-60
2022/10/10 04:03:04;;;;;;;7.57;3.15;;;12.80;70.50;;;;;;5085210;28;20029;-61
2022/10/10 04:05:37;;;;;;;4.85;3.33;;;12.90;70.50;;;;;;5081370;28;20033;-60
2022/10/10 04:08:04;;;;;;;6.13;3.28;;;12.80;70.30;;;;;;5084643;28;20040;-62
2022/10/10 04:10:30;;;;;;;7.00;3.20;;;12.80;70.20;;;;;;5105054;28;20032;-61
2022/10/10 04:12:57;;;;;;;5.55;3.38;;;12.80;70.20;;;;;;5085252;28;20020;-60
2022/10/10 04:15:24;;;;;;;5.80;3.30;;;12.80;70.20;;;;;;5105223;28;20383;-60
2022/10/10 04:17:50;;;;;;;6.10;3.38;;;12.80;70.20;;;;;;5085291;28;20039;-60
2022/10/10 04:20:16;;;;;;;3.78;2.97;;;12.80;70.10;;;;;;5104918;28;20044;-60
2022/10/10 04:22:43;;;;;;;6.45;3.03;;;12.80;70.30;;;;;;5084727;28;20396;-60
2022/10/10 04:25:10;;;;;;;5.28;3.35;;;12.80;70.50;;;;;;5103849;28;20024;-59
2022/10/10 04:27:35;;;;;;;7.50;2.92;;;12.80;70.50;;;;;;5084998;28;20025;-60
2022/10/10 04:30:01;;;;;;;5.50;3.17;;;12.80;70.50;;;;;;5104968;28;20024;-59
2022/10/10 04:32:27;;;;;;;4.35;3.22;;;12.80;70.50;;;;;;5085222;28;20138;-60
2022/10/10 04:34:53;;;;;;;7.68;3.08;;;12.80;70.50;;;;;;5104844;28;20047;-61
2022/10/10 04:37:18;;;;;;;7.45;3.10;;;12.80;70.50;;;;;;5084993;28;20052;-61
2022/10/10 04:39:44;;;;;;;5.03;3.20;;;12.80;70.60;;;;;;5106643;28;20090;-60
2022/10/10 04:42:10;;;;;;;7.80;3.30;;;12.80;70.60;;;;;;5088523;28;20029;-59
2022/10/10 04:44:36;;;;;;;5.63;3.15;;;12.80;70.60;;;;;;5108859;28;20025;-59
2022/10/10 04:47:02;;;;;;;5.25;3.25;;;12.80;70.60;;;;;;5088495;28;20059;-61
2022/10/10 04:49:27;;;;;;;9.40;3.38;;;12.70;70.50;;;;;;5097467;28;20463;-60
2022/10/10 04:51:53;;;;;;;4.90;3.40;;;12.70;70.60;;;;;;5096762;28;20052;-59
2022/10/10 04:54:19;;;;;;;10.23;3.58;;;12.70;70.60;;;;;;5108061;28;20043;-61
2022/10/10 04:56:45;;;;;;;4.35;2.67;;;12.70;70.70;;;;;;5088376;28;20024;-59
2022/10/10 04:59:10;;;;;;;6.13;3.30;;;12.70;70.70;;;;;;5108086;28;20032;-60
2022/10/10 05:01:36;;;;;;;4.60;3.03;;;12.70;70.80;;;;;;5088219;28;20037;-60
2022/10/10 05:04:02;;;;;;;5.65;3.40;;;12.70;70.80;;;;;;5108143;28;20032;-60
2022/10/10 05:06:28;;;;;;;4.30;2.95;;;12.70;70.80;;;;;;5088001;28;20029;-61
2022/10/10 05:08:54;;;;;;;6.53;3.28;;;12.70;70.80;;;;;;5108117;28;20116;-58
2022/10/10 05:11:19;;;;;;;4.82;3.40;;;12.70;70.80;;;;;;5086803;28;20033;-60
2022/10/10 05:13:45;;;;;;;6.65;3.20;;;12.70;70.80;;;;;;5107886;28;20036;-62
2022/10/10 05:16:11;;;;;;;5.38;3.10;;;12.70;70.90;;;;;;5088238;28;20084;-60
2022/10/10 05:18:37;;;;;;;5.70;3.30;;;12.70;71.00;;;;;;5108423;28;20024;-60
2022/10/10 05:21:05;;;;;;;5.95;2.90;;;12.70;71.00;;;;;;5088389;28;20096;-61
2022/10/10 05:23:31;;;;;;;5.30;3.15;;;12.70;71.00;;;;;;5087403;28;20036;-60
2022/10/10 05:25:57;;;;;;;7.47;3.53;;;12.70;71.10;;;;;;5107690;28;20107;-60
2022/10/10 05:28:22;;;;;;;5.05;3.00;;;12.70;71.20;;;;;;5086346;28;20025;-59
2022/10/10 05:30:50;;;;;;;4.40;3.55;;;12.70;71.20;;;;;;5106327;28;20032;-59
2022/10/10 05:33:16;;;;;;;6.97;4.40;;;12.70;71.40;;;;;;5087288;28;20043;-59
2022/10/10 05:35:41;;;;;;;10.52;6.03;;;12.70;71.30;;;;;;5107312;28;20028;-61
2022/10/10 05:38:07;;;;;;;12.55;4.28;;;12.70;71.20;;;;;;5087432;28;20071;-62
2022/10/10 05:40:33;;;;;;;6.82;4.25;;;12.70;70.90;;;;;;5107397;28;20059;-60
2022/10/10 05:42:59;;;;;;;12.13;4.22;;;12.70;70.80;;;;;;5087365;28;20036;-59
2022/10/10 05:45:24;;;;;;;9.00;4.32;;;12.70;70.90;;;;;;5105990;28;20036;-60
2022/10/10 05:47:50;;;;;;;8.20;3.97;;;12.70;71.00;;;;;;5093610;28;20438;-60
2022/10/10 05:50:45;;;;;;;8.18;3.95;;;12.70;71.00;;;;;;5104615;28;20089;-59
2022/10/10 05:53:11;;;;;;;8.40;4.30;;;12.70;71.50;;;;;;5080595;28;20041;-61
2022/10/10 05:55:36;;;;;;;7.80;3.97;;;12.70;71.00;;;;;;5106022;28;20039;-61
2022/10/10 05:58:02;;;;;;;8.20;3.70;;;12.70;71.10;;;;;;5106535;28;20024;-60
2022/10/10 06:00:28;;;;;;;8.10;4.05;;;12.70;71.10;;;;;;5087583;28;20043;-60
2022/10/10 06:02:57;;;;;;;7.35;4.05;;;12.70;71.00;;;;;;5092486;28;20039;-59
2022/10/10 06:05:23;;;;;;;9.80;3.55;;;12.80;71.10;;;;;;5107401;28;20046;-59
2022/10/10 06:07:48;;;;;;;10.68;4.55;;;12.80;71.10;;;;;;5086765;28;20029;-60
2022/10/10 06:10:14;;;;;;;8.52;4.45;;;12.80;71.10;;;;;;5106917;28;20027;-60
2022/10/10 06:12:40;;;;;;;8.85;4.80;;;12.80;71.10;;;;;;5086784;28;20039;-61
2022/10/10 06:15:06;;;;;;;7.97;4.32;;;12.90;71.10;;;;;;5106493;28;20024;-61
2022/10/10 06:17:32;;;;;;;9.57;4.68;;;12.90;71.20;;;;;;5086473;28;20021;-61
2022/10/10 06:19:58;;;;;;;7.07;4.05;;;12.90;71.20;;;;;;5106498;28;20105;-61
2022/10/10 06:22:23;;;;;;;10.65;4.95;;;12.90;71.20;;;;;;5086625;28;20029;-60
2022/10/10 06:24:49;;;;;;;6.00;3.97;;;13.00;71.30;;;;;;5106576;28;20024;-60
2022/10/10 06:27:15;;;;;;;8.45;3.80;;;13.00;71.20;;;;;;5086501;28;20372;-60
2022/10/10 06:29:40;;;;;;;6.95;4.68;;;13.00;71.20;;;;;;5106614;28;20032;-61
2022/10/10 06:32:06;;;;;;;7.40;4.22;;;13.10;71.20;;;;;;5079022;28;20138;-61
2022/10/10 06:34:32;;;;;;;6.18;3.80;;;13.10;71.30;;;;;;5074433;28;20036;-61
2022/10/10 06:36:57;;;;;;;8.45;4.20;;;13.10;71.30;;;;;;5105575;28;20028;-61
2022/10/10 06:39:23;;;;;;;9.40;3.70;;;13.20;71.40;;;;;;5103724;28;20035;-61
2022/10/10 06:41:49;;;;;;;12.40;3.80;;;13.20;71.50;;;;;;5100747;28;20024;-60
2022/10/10 06:44:18;;;;;;;7.72;4.35;;;13.20;71.50;;;;;;5086562;28;20089;-59
2022/10/10 06:46:43;;;;;;;14.85;6.97;;;13.30;71.60;;;;;;5102537;28;20039;-60
2022/10/10 06:49:09;;;;;;;11.52;7.03;;;13.30;71.50;;;;;;5097722;28;20013;-59
2022/10/10 06:51:36;;;;;;;12.18;6.80;;;13.30;71.40;;;;;;5096997;28;20121;-61
2022/10/10 06:54:02;;;;;;;12.80;6.97;;;13.30;71.40;;;;;;5086579;28;20037;-61
2022/10/10 06:56:28;;;;;;;12.32;6.05;;;13.40;71.50;;;;;;5104651;28;20031;-60
2022/10/10 06:58:54;;;;;;;11.45;6.13;;;13.40;71.40;;;;;;5103891;28;20053;-60
2022/10/10 07:01:21;;;;;;;10.57;5.93;;;13.50;72.20;;;;;;5086362;28;20110;-61
2022/10/10 07:03:47;;;;;;;11.07;5.65;;;13.50;71.40;;;;;;5085623;28;20025;-62
2022/10/10 07:06:13;;;;;;;12.73;5.65;;;13.50;71.40;;;;;;5105846;28;20031;-61
2022/10/10 07:08:39;;;;;;;6.75;4.63;;;13.60;71.40;;;;;;5086113;28;20043;-60
2022/10/10 07:11:08;;;;;;;11.80;5.53;;;13.60;71.30;;;;;;5101117;28;20040;-60
2022/10/10 07:13:35;;;;;;;8.32;4.90;;;13.70;71.20;;;;;;5088350;28;20052;-60
2022/10/10 07:16:02;;;;;;;8.85;4.43;;;13.70;71.10;;;;;;5093109;28;20028;-59
2022/10/10 07:18:28;;;;;;;10.60;4.97;;;13.80;71.70;;;;;;5088858;28;20032;-60
2022/10/10 07:20:58;;;;;;;7.68;5.15;;;13.80;70.90;;;;;;5105869;28;20032;-61
2022/10/10 07:23:24;;;;;;;10.63;5.35;;;13.80;71.00;;;;;;5084074;28;20035;-60
2022/10/10 07:25:51;;;;;;;8.85;4.97;;;13.90;70.90;;;;;;5105943;28;20068;-61
2022/10/10 07:28:16;;;;;;;11.60;5.30;;;13.90;70.90;;;;;;5086112;28;20046;-60
2022/10/10 07:30:44;;;;;;;11.70;5.53;;;14.00;70.90;;;;;;5094148;28;20048;-60
2022/10/10 07:33:14;;;;;;;8.73;5.03;;;14.00;71.00;;;;;;5091434;28;20522;-59
2022/10/10 07:35:40;;;;;;;12.05;5.53;;;14.10;71.00;;;;;;5105667;28;20052;-62
2022/10/10 07:38:06;;;;;;;7.80;5.22;;;14.10;70.70;;;;;;5085540;28;20530;-59
2022/10/10 07:40:32;;;;;;;9.98;5.57;;;14.20;70.70;;;;;;5105611;28;20035;-61
2022/10/10 07:42:58;;;;;;;11.70;6.28;;;14.20;70.80;;;;;;5085668;28;20021;-60
2022/10/10 07:45:24;;;;;;;10.98;5.63;;;14.30;70.80;;;;;;5105277;28;20088;-60
2022/10/10 07:47:53;;;;;;;10.75;6.53;;;14.30;70.90;;;;;;5085337;28;20032;-61
2022/10/10 07:50:19;;;;;;;10.52;5.80;;;14.40;71.00;;;;;;5104750;28;20053;-62
2022/10/10 07:52:44;;;;;;;14.40;6.60;;;14.40;70.80;;;;;;5085157;28;20075;-62
2022/10/10 07:55:10;;;;;;;10.60;5.85;;;14.50;70.80;;;;;;5105490;28;20036;-61
2022/10/10 07:57:36;;;;;;;15.23;5.80;;;14.50;70.70;;;;;;5085293;28;20133;-60
2022/10/10 08:00:04;;;;;;;15.95;6.07;;;14.60;70.60;;;;;;5105015;28;20056;-62
2022/10/10 08:02:30;;;;;;;9.20;6.05;;;14.60;70.60;;;;;;5092169;28;20052;-60
2022/10/10 08:04:56;;;;;;;10.52;6.53;;;14.70;70.40;;;;;;5088334;28;20032;-61
2022/10/10 08:07:22;;;;;;;12.77;6.85;;;14.70;70.30;;;;;;5099045;28;20080;-61
2022/10/10 08:09:47;;;;;;;13.95;7.10;;;14.70;70.30;;;;;;5105496;28;20500;-61
2022/10/10 08:12:13;;;;;;;8.90;6.43;;;14.80;70.50;;;;;;5085309;28;20040;-60
2022/10/10 08:14:38;;;;;;;9.77;6.70;;;14.80;70.50;;;;;;5106444;28;20020;-62
2022/10/10 08:17:04;;;;;;;8.02;6.38;;;14.90;70.60;;;;;;5089282;28;20028;-61
2022/10/10 08:19:30;;;;;;;10.90;6.68;;;15.00;70.70;;;;;;5089775;28;20039;-60
2022/10/10 08:21:56;;;;;;;10.23;6.68;;;15.00;70.60;;;;;;5106773;28;20028;-60
2022/10/10 08:24:21;;;;;;;14.82;7.05;;;15.10;70.60;;;;;;5109733;28;20055;-60
2022/10/10 08:26:47;;;;;;;7.70;6.18;;;15.20;70.50;;;;;;5088715;28;20090;-59
2022/10/10 08:29:13;;;;;;;11.35;5.97;;;15.30;70.50;;;;;;5109455;28;20020;-60
2022/10/10 08:31:38;;;;;;;13.00;6.63;;;15.30;70.40;;;;;;5089571;28;20452;-60
2022/10/10 08:34:04;;;;;;;9.02;6.22;;;15.40;70.20;;;;;;5108060;28;20036;-59
2022/10/10 08:36:30;;;;;;;11.52;6.60;;;15.40;70.20;;;;;;5089509;28;20036;-61
2022/10/10 08:38:58;;;;;;;12.25;7.05;;;15.50;70.10;;;;;;5107937;28;20058;-61
2022/10/10 08:41:30;;;;;;;9.60;6.60;;;15.60;70.00;;;;;;5089150;28;20054;-61
2022/10/10 08:44:13;;;;;;;12.98;6.60;;;15.70;70.20;;;;;;5085478;28;20137;-61
2022/10/10 08:46:45;;;;;;;11.00;6.95;;;15.80;70.10;;;;;;5069802;28;20025;-60
2022/10/10 08:49:24;;;;;;;10.80;6.80;;;15.90;70.00;;;;;;4979099;28;20068;-60
2022/10/10 08:51:59;;;;;;;16.95;7.45;;;16.00;69.90;;;;;;5087668;28;20059;-59
2022/10/10 08:54:26;;;;;;;13.20;6.57;;;16.10;69.60;;;;;;5068963;28;20505;-61
2022/10/10 08:56:57;;;;;;;12.32;6.95;;;16.20;69.40;;;;;;5108039;28;20028;-62
2022/10/10 08:59:28;;;;;;;11.63;6.72;;;16.20;69.30;;;;;;5068790;28;20029;-61
2022/10/10 09:02:04;;;;;;;12.95;7.20;;;16.30;69.20;;;;;;5067848;28;20037;-61
2022/10/10 09:04:32;;;;;;;11.68;6.65;;;16.40;69.90;;;;;;5068606;28;20118;-60
2022/10/10 09:07:23;;;;;;;13.15;6.60;;;16.40;69.10;;;;;;5099419;28;20021;-61
2022/10/10 09:10:06;;;;;;;9.43;6.82;;;16.50;69.10;;;;;;5088585;28;20024;-62
2022/10/10 09:12:43;;;;;;;14.07;6.88;;;16.60;68.70;;;;;;5072347;28;20141;-60
2022/10/10 09:15:11;;;;;;;12.27;7.47;;;16.60;68.60;;;;;;5068398;28;20040;-60
2022/10/10 09:18:07;;;;;;;11.07;6.88;;;16.70;68.80;;;;;;5100562;28;20017;-60
2022/10/10 09:20:46;;;;;;;13.82;6.07;;;16.80;68.50;;;;;;5108705;28;20059;-60
2022/10/10 09:23:20;;;;;;;14.45;7.55;;;16.80;68.40;;;;;;5086150;28;20041;-61
2022/10/10 09:25:54;;;;;;;12.13;7.10;;;16.90;68.50;;;;;;5107997;28;20032;-60
2022/10/10 09:28:43;;;;;;;11.85;6.68;;;17.00;68.60;;;;;;5078410;28;20036;-61
2022/10/10 09:31:20;;;;;;;11.43;6.57;;;17.10;68.70;;;;;;5107936;28;20036;-61
2022/10/10 09:34:03;;;;;;;11.35;6.93;;;17.20;68.20;;;;;;5087438;28;20024;-61
2022/10/10 09:36:33;;;;;;;7.88;6.65;;;17.30;68.10;;;;;;5068176;28;20040;-61
2022/10/10 09:39:11;;;;;;;10.55;7.10;;;17.30;67.90;;;;;;5090738;28;20032;-61
2022/10/10 09:41:56;;;;;;;12.63;6.75;;;17.40;68.00;;;;;;5067722;28;20025;-61
2022/10/10 09:44:23;;;;;;;8.30;5.82;;;17.40;67.50;;;;;;5086505;28;20033;-60
2022/10/10 09:46:48;;;;;;;8.85;6.72;;;17.40;67.50;;;;;;5107686;28;20107;-60
2022/10/10 09:49:16;;;;;;;9.38;6.55;;;17.40;67.60;;;;;;5095477;28;20024;-60
2022/10/10 09:51:42;;;;;;;12.65;6.20;;;17.50;67.70;;;;;;5096109;28;20070;-60
2022/10/10 09:54:08;;;;;;;14.98;6.75;;;17.50;67.80;;;;;;5087162;28;20036;-62
2022/10/10 09:56:42;;;;;;;12.00;6.45;;;17.50;68.00;;;;;;5107032;28;20118;-61
2022/10/10 09:59:41;;;;;;;13.63;6.35;;;17.60;68.10;;;;;;5083712;28;20021;-59
2022/10/10 10:02:22;;;;;;;8.55;5.45;;;17.70;68.10;;;;;;5084762;28;20048;-61
2022/10/10 10:04:49;;;;;;;8.57;6.03;;;17.70;68.40;;;;;;5107925;28;20030;-61
2022/10/10 10:07:27;;;;;;;11.13;6.55;;;17.80;68.00;;;;;;5088140;28;20090;-60
2022/10/10 10:10:16;;;;;;;10.07;5.95;;;17.90;68.00;;;;;;5107912;28;20035;-60
2022/10/10 10:12:43;;;;;;;8.65;5.80;;;17.90;67.50;;;;;;5084268;28;20459;-61
2022/10/10 10:15:30;;;;;;;14.65;6.20;;;18.00;67.60;;;;;;5087315;28;20029;-61
2022/10/10 10:18:20;;;;;;;12.18;6.53;;;18.00;67.60;;;;;;5106325;28;20035;-61
2022/10/10 10:20:49;;;;;;;10.95;6.40;;;18.10;67.70;;;;;;5067016;28;20041;-62
2022/10/10 10:23:30;;;;;;;12.82;6.18;;;18.20;67.50;;;;;;5105340;28;20024;-60
2022/10/10 10:26:01;;;;;;;17.27;6.78;;;18.20;67.10;;;;;;5067304;28;20064;-60
2022/10/10 10:28:27;;;;;;;12.10;7.47;;;18.20;67.10;;;;;;5095349;28;20063;-61
2022/10/10 10:30:56;;;;;;;10.80;6.35;;;18.30;67.10;;;;;;5106851;28;20024;-60
2022/10/10 10:33:32;;;;;;;16.30;6.47;;;18.30;67.10;;;;;;5096183;28;20043;-61
2022/10/10 10:35:58;;;;;;;10.23;6.57;;;18.30;67.10;;;;;;5080815;28;20059;-61
2022/10/10 10:38:48;;;;;;;15.30;6.38;;;18.40;66.90;;;;;;5104852;28;20073;-61
2022/10/10 10:41:43;;;;;;;10.88;6.28;;;18.40;66.80;;;;;;5067066;28;20033;-60
2022/10/10 10:44:22;;;;;;;8.73;5.63;;;18.40;66.80;;;;;;5066147;28;20032;-61
2022/10/10 10:46:53;;;;;;;10.90;6.22;;;18.50;67.10;;;;;;5066784;28;20275;-62
2022/10/10 10:49:45;;;;;;;7.50;5.50;;;18.60;67.30;;;;;;5096900;28;20413;-60
2022/10/10 10:52:35;;;;;;;15.32;5.95;;;18.60;66.80;;;;;;5090491;28;20047;-61
2022/10/10 10:55:07;;;;;;;13.23;6.00;;;18.70;66.50;;;;;;5066530;28;20063;-61
2022/10/10 10:57:52;;;;;;;9.40;5.97;;;18.80;66.60;;;;;;5068107;28;20029;-61
2022/10/10 11:00:19;;;;;;;10.13;5.82;;;18.80;66.40;;;;;;5066478;28;20097;-61
2022/10/10 11:03:01;;;;;;;9.85;5.57;;;18.90;66.30;;;;;;5101016;28;20055;-61
2022/10/10 11:05:39;;;;;;;10.30;5.20;;;19.00;66.20;;;;;;5066363;28;20387;-61
2022/10/10 11:08:34;;;;;;;8.02;5.32;;;19.00;66.00;;;;;;5097215;28;20133;-60
2022/10/10 11:11:47;;;;;;;6.80;4.85;;;19.10;66.30;;;;;;5064126;28;20064;-61
2022/10/10 11:14:15;;;;;;;6.72;5.13;;;19.10;66.00;;;;;;5080915;28;20031;-60
2022/10/10 11:16:51;;;;;;;10.77;5.60;;;19.20;66.10;;;;;;5105696;28;20031;-61
2022/10/10 11:19:45;;;;;;;10.38;5.93;;;19.30;66.00;;;;;;5085216;28;20025;-61
2022/10/10 11:22:18;;;;;;;9.60;5.13;;;19.40;65.80;;;;;;5065941;28;20021;-59
2022/10/10 11:24:52;;;;;;;11.13;4.97;;;19.50;65.90;;;;;;5084713;28;20040;-62
2022/10/10 11:27:39;;;;;;;7.78;4.47;;;19.60;65.70;;;;;;5065973;28;20440;-60
2022/10/10 11:30:20;;;;;;;10.30;5.20;;;19.70;65.60;;;;;;5065920;28;20025;-61
2022/10/10 11:32:54;;;;;;;9.27;4.75;;;19.80;65.70;;;;;;5068164;28;20028;-61
2022/10/10 11:35:20;;;;;;;;;;;19.80;65.10;;;;;;5066631;28;20029;-60
2022/10/10 11:37:56;;;;;;;9.98;4.60;;;19.90;65.40;;;;;;5103490;28;19923;-61
2022/10/10 11:40:36;;;;;;;8.48;4.47;;;20.00;65.20;;;;;;5104741;28;20043;-61
2022/10/10 11:43:09;;;;;;;8.48;5.20;;;20.10;65.00;;;;;;5074905;28;20031;-60
2022/10/10 11:45:43;;;;;;;7.83;4.67;;;20.20;65.10;;;;;;5106378;28;20024;-61
2022/10/10 11:48:18;;;;;;;;;;;20.30;64.80;;;;;;5076909;28;20269;-62
2022/10/10 11:50:48;;;;;;;11.02;4.53;;;20.50;65.20;;;;;;5106994;28;19930;-61
2022/10/10 11:53:14;;;;;;;9.90;4.80;;;20.60;65.50;;;;;;5095427;28;20497;-60
2022/10/10 11:55:45;;;;;;;9.38;4.70;;;20.80;65.10;;;;;;5106235;28;20033;-61
2022/10/10 11:58:11;;;;;;;11.50;4.53;;;20.90;64.30;;;;;;5078981;28;20020;-61
2022/10/10 12:00:43;;;;;;;7.28;4.25;;;21.10;63.90;;;;;;5110681;28;20368;-61
2022/10/10 12:03:09;;;;;;;13.00;4.88;;;21.30;63.00;;;;;;5079460;28;20016;-61
2022/10/10 12:05:39;;;;;;;9.23;4.10;;;21.30;62.70;;;;;;5109805;28;20029;-62
2022/10/10 12:08:17;;;;;;;11.20;4.63;;;21.40;62.60;;;;;;5093184;28;20051;-60
2022/10/10 12:11:12;;;;;;;11.88;4.85;;;21.50;62.20;;;;;;5110001;28;20035;-60
2022/10/10 12:13:46;;;;;;;5.82;4.03;;;21.60;61.70;;;;;;5086730;28;20031;-60
2022/10/10 12:16:20;;;;;;;7.43;4.50;;;21.60;61.60;;;;;;5069944;28;20029;-60
2022/10/10 12:19:22;;;;;;;7.60;4.43;;;21.70;61.30;;;;;;5088429;28;20040;-61
2022/10/10 12:21:53;;;;;;;9.38;3.90;;;21.70;60.80;;;;;;5093971;28;20040;-61
2022/10/10 12:24:19;;;;;;;11.52;4.50;;;21.70;60.40;;;;;;5088584;28;20029;-61
2022/10/10 12:26:54;;;;;;;12.05;4.25;;;21.60;60.90;;;;;;5093837;28;20036;-61
2022/10/10 12:29:39;;;;;;;7.70;4.22;;;21.60;60.70;;;;;;5093295;28;20089;-61
2022/10/10 12:32:16;;;;;;;9.38;4.50;;;21.50;61.10;;;;;;5109621;28;20527;-61
2022/10/10 12:34:42;;;;;;;7.32;4.07;;;21.50;61.00;;;;;;5088442;28;20031;-61
2022/10/10 12:37:31;;;;;;;7.68;4.07;;;21.50;61.50;;;;;;5108830;28;20069;-60
2022/10/10 12:40:06;;;;;;;7.72;3.83;;;21.50;60.80;;;;;;5088634;28;20037;-61
2022/10/10 12:42:59;;;;;;;8.18;4.43;;;21.50;60.70;;;;;;5100469;28;20096;-60
2022/10/10 12:45:28;;;;;;;9.85;3.55;;;21.50;60.80;;;;;;5069219;28;20037;-60
2022/10/10 12:47:59;;;;;;;9.05;3.90;;;21.50;61.30;;;;;;5107186;28;20087;-60
2022/10/10 12:50:28;;;;;;;8.80;3.88;;;21.50;61.20;;;;;;5108729;28;20024;-60
2022/10/10 12:53:04;;;;;;;9.38;3.65;;;21.60;61.10;;;;;;5089935;28;20048;-61
2022/10/10 12:55:49;;;;;;;9.40;3.78;;;21.50;61.20;;;;;;5109449;28;20071;-60
2022/10/10 12:58:23;;;;;;;;;;;21.60;61.30;;;;;;5073308;28;20150;-61
2022/10/10 13:00:50;;;;;;;9.50;3.47;;;21.70;61.70;;;;;;5108186;28;19915;-61
2022/10/10 13:03:33;;;;;;;7.15;4.40;;;21.70;61.50;;;;;;5092691;28;20028;-61
2022/10/10 13:06:06;;;;;;;6.20;3.65;;;21.70;61.00;;;;;;5109125;28;20016;-61